sensor_id;sensor_type;location;lat;lon;timestamp;pressure;altitude;pressure_sealevel;temperature;humidity
41264;BME280;26998;48.714;9.414;2023-05-23T00:00:56;99078.97;;;15.68;100.00
41264;BME280;26998;48.714;9.414;2023-05-23T00:03:26;99085.16;;;15.68;100.00
41264;BME280;26998;48.714;9.414;2023-05-23T00:05:53;99077.91;;;15.69;100.00
41264;BME280;26998;48.714;9.414;2023-05-23T00:08:20;99078.50;;;15.71;100.00
41264;BME280;26998;48.714;9.414;2023-05-23T00:10:47;99075.38;;;15.74;100.00
41264;BME280;26998;48.714;9.414;2023-05-23T00:13:14;99058.38;;;15.74;100.00
41264;BME280;26998;48.714;9.414;2023-05-23T00:15:41;99049.22;;;15.75;100.00
41264;BME280;26998;48.714;9.414;2023-05-23T00:18:09;99046.53;;;15.75;100.00
41264;BME280;26998;48.714;9.414;2023-05-23T00:20:37;99049.69;;;15.72;100.00
41264;BME280;26998;48.714;9.414;2023-05-23T00:23:03;99042.66;;;15.70;100.00
41264;BME280;26998;48.714;9.414;2023-05-23T00:25:30;99039.78;;;15.65;100.00
41264;BME280;26998;48.714;9.414;2023-05-23T00:27:56;99014.34;;;15.61;100.00
41264;BME280;26998;48.714;9.414;2023-05-23T00:30:23;99008.22;;;15.54;100.00
41264;BME280;26998;48.714;9.414;2023-05-23T00:32:52;98985.47;;;15.50;100.00
41264;BME280;26998;48.714;9.414;2023-05-23T00:35:21;98972.47;;;15.47;100.00
41264;BME280;26998;48.714;9.414;2023-05-23T00:37:48;98954.22;;;15.49;100.00
41264;BME280;26998;48.714;9.414;2023-05-23T00:40:15;98960.41;;;15.50;100.00
41264;BME280;26998;48.714;9.414;2023-05-23T00:42:42;98957.94;;;15.48;100.00
41264;BME280;26998;48.714;9.414;2023-05-23T00:45:09;98950.09;;;15.46;100.00
41264;BME280;26998;48.714;9.414;2023-05-23T00:47:36;98953.59;;;15.47;100.00
41264;BME280;26998;48.714;9.414;2023-05-23T00:50:03;98956.28;;;15.47;100.00
41264;BME280;26998;48.714;9.414;2023-05-23T00:52:31;98957.56;;;15.44;100.00
41264;BME280;26998;48.714;9.414;2023-05-23T00:54:58;98952.19;;;15.44;100.00
41264;BME280;26998;48.714;9.414;2023-05-23T00:57:25;98959.25;;;15.45;100.00
41264;BME280;26998;48.714;9.414;2023-05-23T00:59:51;98967.06;;;15.47;100.00
41264;BME280;26998;48.714;9.414;2023-05-23T01:02:18;98970.38;;;15.49;100.00
41264;BME280;26998;48.714;9.414;2023-05-23T01:04:49;98964.16;;;15.48;100.00
41264;BME280;26998;48.714;9.414;2023-05-23T01:07:16;98965.00;;;15.49;100.00
41264;BME280;26998;48.714;9.414;2023-05-23T01:09:42;98957.94;;;15.48;100.00
41264;BME280;26998;48.714;9.414;2023-05-23T01:15:03;98960.59;;;15.36;100.00
41264;BME280;26998;48.714;9.414;2023-05-23T01:18:07;98952.34;;;15.31;100.00
41264;BME280;26998;48.714;9.414;2023-05-23T01:20:58;98953.63;;;15.29;100.00
41264;BME280;26998;48.714;9.414;2023-05-23T01:26:36;98945.44;;;15.23;100.00
41264;BME280;26998;48.714;9.414;2023-05-23T01:29:13;98947.50;;;15.21;100.00
41264;BME280;26998;48.714;9.414;2023-05-23T01:31:45;98942.56;;;15.18;100.00
41264;BME280;26998;48.714;9.414;2023-05-23T01:34:12;98950.06;;;15.16;100.00
41264;BME280;26998;48.714;9.414;2023-05-23T01:36:41;98943.63;;;15.17;100.00
41264;BME280;26998;48.714;9.414;2023-05-23T01:39:08;98949.47;;;15.14;100.00
41264;BME280;26998;48.714;9.414;2023-05-23T01:41:35;98946.44;;;15.22;100.00
41264;BME280;26998;48.714;9.414;2023-05-23T01:44:02;98949.16;;;15.22;100.00
41264;BME280;26998;48.714;9.414;2023-05-23T01:46:30;98955.75;;;15.27;100.00
41264;BME280;26998;48.714;9.414;2023-05-23T01:48:58;98952.00;;;15.28;100.00
41264;BME280;26998;48.714;9.414;2023-05-23T01:51:25;98957.38;;;15.28;100.00
41264;BME280;26998;48.714;9.414;2023-05-23T01:53:52;98949.91;;;15.30;100.00
41264;BME280;26998;48.714;9.414;2023-05-23T01:56:19;98956.94;;;15.31;100.00
41264;BME280;26998;48.714;9.414;2023-05-23T01:58:46;98953.41;;;15.30;100.00
41264;BME280;26998;48.714;9.414;2023-05-23T02:01:13;98950.34;;;15.27;100.00
41264;BME280;26998;48.714;9.414;2023-05-23T02:03:40;98954.09;;;15.25;100.00
41264;BME280;26998;48.714;9.414;2023-05-23T02:06:07;98950.22;;;15.21;100.00
41264;BME280;26998;48.714;9.414;2023-05-23T02:08:34;98962.03;;;15.20;100.00
41264;BME280;26998;48.714;9.414;2023-05-23T02:11:00;98963.66;;;15.21;100.00
41264;BME280;26998;48.714;9.414;2023-05-23T02:13:27;98959.53;;;15.19;100.00
41264;BME280;26998;48.714;9.414;2023-05-23T02:15:54;98966.19;;;15.16;100.00
41264;BME280;26998;48.714;9.414;2023-05-23T02:18:21;98960.91;;;15.10;100.00
41264;BME280;26998;48.714;9.414;2023-05-23T02:20:48;98951.84;;;15.04;100.00
41264;BME280;26998;48.714;9.414;2023-05-23T02:23:14;98942.59;;;15.00;100.00
41264;BME280;26998;48.714;9.414;2023-05-23T02:25:41;98939.28;;;14.98;100.00
41264;BME280;26998;48.714;9.414;2023-05-23T02:28:08;98938.72;;;14.96;100.00
41264;BME280;26998;48.714;9.414;2023-05-23T02:30:38;98939.16;;;14.93;100.00
41264;BME280;26998;48.714;9.414;2023-05-23T02:33:06;98942.88;;;14.92;100.00
41264;BME280;26998;48.714;9.414;2023-05-23T02:35:33;98941.69;;;14.88;100.00
41264;BME280;26998;48.714;9.414;2023-05-23T02:37:59;98948.56;;;14.84;100.00
41264;BME280;26998;48.714;9.414;2023-05-23T02:40:26;98942.38;;;14.83;100.00
41264;BME280;26998;48.714;9.414;2023-05-23T02:42:53;98931.19;;;14.79;100.00
41264;BME280;26998;48.714;9.414;2023-05-23T02:45:19;98938.09;;;14.75;100.00
41264;BME280;26998;48.714;9.414;2023-05-23T02:47:46;98940.16;;;14.73;100.00
41264;BME280;26998;48.714;9.414;2023-05-23T02:50:13;98935.63;;;14.74;100.00
41264;BME280;26998;48.714;9.414;2023-05-23T02:52:39;98928.59;;;14.73;100.00
41264;BME280;26998;48.714;9.414;2023-05-23T02:55:06;98938.09;;;14.75;100.00
41264;BME280;26998;48.714;9.414;2023-05-23T02:57:33;98934.34;;;14.76;100.00
41264;BME280;26998;48.714;9.414;2023-05-23T03:00:00;98931.06;;;14.74;100.00
41264;BME280;26998;48.714;9.414;2023-05-23T03:02:27;98937.81;;;14.84;100.00
41264;BME280;26998;48.714;9.414;2023-05-23T03:04:54;98938.38;;;14.86;100.00
41264;BME280;26998;48.714;9.414;2023-05-23T03:07:21;98951.19;;;14.90;100.00
41264;BME280;26998;48.714;9.414;2023-05-23T03:09:53;98956.13;;;14.93;100.00
41264;BME280;26998;48.714;9.414;2023-05-23T03:12:20;98955.44;;;14.98;100.00
41264;BME280;26998;48.714;9.414;2023-05-23T03:14:47;98969.28;;;15.01;100.00
41264;BME280;26998;48.714;9.414;2023-05-23T03:17:14;98969.28;;;15.01;100.00
41264;BME280;26998;48.714;9.414;2023-05-23T03:19:41;98971.75;;;15.03;100.00
41264;BME280;26998;48.714;9.414;2023-05-23T03:22:08;98966.72;;;15.07;100.00
41264;BME280;26998;48.714;9.414;2023-05-23T03:24:35;98960.09;;;15.09;100.00
41264;BME280;26998;48.714;9.414;2023-05-23T03:27:01;98954.63;;;15.16;100.00
41264;BME280;26998;48.714;9.414;2023-05-23T03:29:28;98962.25;;;15.19;100.00
41264;BME280;26998;48.714;9.414;2023-05-23T03:31:56;98974.44;;;15.21;100.00
41264;BME280;26998;48.714;9.414;2023-05-23T03:34:22;98979.81;;;15.21;100.00
41264;BME280;26998;48.714;9.414;2023-05-23T03:36:49;98985.81;;;15.23;100.00
41264;BME280;26998;48.714;9.414;2023-05-23T03:39:16;98991.78;;;15.25;100.00
41264;BME280;26998;48.714;9.414;2023-05-23T03:41:43;98989.09;;;15.25;100.00
41264;BME280;26998;48.714;9.414;2023-05-23T03:44:10;98998.44;;;15.23;100.00
41264;BME280;26998;48.714;9.414;2023-05-23T03:46:36;99000.91;;;15.24;100.00
41264;BME280;26998;48.714;9.414;2023-05-23T03:49:05;99001.53;;;15.27;100.00
41264;BME280;26998;48.714;9.414;2023-05-23T03:51:33;98995.06;;;15.28;100.00
41264;BME280;26998;48.714;9.414;2023-05-23T03:54:00;98999.41;;;15.29;100.00
41264;BME280;26998;48.714;9.414;2023-05-23T03:56:27;98990.75;;;15.27;100.00
41264;BME280;26998;48.714;9.414;2023-05-23T03:58:53;98982.28;;;15.23;100.00
41264;BME280;26998;48.714;9.414;2023-05-23T04:01:20;98982.34;;;15.16;100.00
41264;BME280;26998;48.714;9.414;2023-05-23T04:03:47;98976.16;;;15.16;100.00
41264;BME280;26998;48.714;9.414;2023-05-23T04:06:14;98966.88;;;15.12;100.00
41264;BME280;26998;48.714;9.414;2023-05-23T04:08:41;98957.66;;;15.19;100.00
41264;BME280;26998;48.714;9.414;2023-05-23T04:11:08;98971.44;;;15.30;100.00
41264;BME280;26998;48.714;9.414;2023-05-23T04:13:34;98985.13;;;15.28;100.00
41264;BME280;26998;48.714;9.414;2023-05-23T04:16:01;98979.59;;;15.23;100.00
41264;BME280;26998;48.714;9.414;2023-05-23T04:18:28;98977.03;;;15.28;100.00
41264;BME280;26998;48.714;9.414;2023-05-23T04:20:59;98984.31;;;15.28;100.00
41264;BME280;26998;48.714;9.414;2023-05-23T04:23:25;98980.09;;;15.32;100.00
41264;BME280;26998;48.714;9.414;2023-05-23T04:25:52;98989.25;;;15.31;100.00
41264;BME280;26998;48.714;9.414;2023-05-23T04:28:19;98981.78;;;15.33;100.00
41264;BME280;26998;48.714;9.414;2023-05-23T04:30:46;98980.47;;;15.35;100.00
41264;BME280;26998;48.714;9.414;2023-05-23T04:33:13;98980.84;;;15.39;100.00
41264;BME280;26998;48.714;9.414;2023-05-23T04:35:39;98987.53;;;15.36;100.00
41264;BME280;26998;48.714;9.414;2023-05-23T04:38:06;98985.56;;;15.43;100.00
41264;BME280;26998;48.714;9.414;2023-05-23T04:40:33;98986.28;;;15.51;100.00
41264;BME280;26998;48.714;9.414;2023-05-23T04:42:59;98993.09;;;15.53;100.00
41264;BME280;26998;48.714;9.414;2023-05-23T04:45:26;99014.81;;;15.58;100.00
41264;BME280;26998;48.714;9.414;2023-05-23T04:47:53;99018.53;;;15.57;100.00
41264;BME280;26998;48.714;9.414;2023-05-23T04:50:20;99029.09;;;15.59;100.00
41264;BME280;26998;48.714;9.414;2023-05-23T04:52:46;99028.19;;;15.65;100.00
41264;BME280;26998;48.714;9.414;2023-05-23T04:55:13;99035.03;;;15.67;100.00
41264;BME280;26998;48.714;9.414;2023-05-23T04:57:40;99036.22;;;15.72;100.00
41264;BME280;26998;48.714;9.414;2023-05-23T05:00:07;99051.69;;;15.76;100.00
41264;BME280;26998;48.714;9.414;2023-05-23T05:02:33;99052.09;;;15.80;100.00
41264;BME280;26998;48.714;9.414;2023-05-23T05:05:00;99053.25;;;15.84;100.00
41264;BME280;26998;48.714;9.414;2023-05-23T05:07:27;99050.56;;;15.84;100.00
41264;BME280;26998;48.714;9.414;2023-05-23T05:09:53;99064.88;;;15.84;100.00
41264;BME280;26998;48.714;9.414;2023-05-23T05:12:20;99074.97;;;15.89;100.00
41264;BME280;26998;48.714;9.414;2023-05-23T05:14:47;99083.19;;;15.94;100.00
41264;BME280;26998;48.714;9.414;2023-05-23T05:17:13;99084.06;;;16.06;100.00
41264;BME280;26998;48.714;9.414;2023-05-23T05:19:40;99091.03;;;16.14;100.00
41264;BME280;26998;48.714;9.414;2023-05-23T05:22:06;99094.66;;;16.20;100.00
41264;BME280;26998;48.714;9.414;2023-05-23T05:24:33;99103.03;;;16.30;100.00
41264;BME280;26998;48.714;9.414;2023-05-23T05:27:00;99130.28;;;16.40;100.00
41264;BME280;26998;48.714;9.414;2023-05-23T05:29:26;99138.53;;;16.57;100.00
41264;BME280;26998;48.714;9.414;2023-05-23T05:31:53;99164.50;;;16.70;100.00
41264;BME280;26998;48.714;9.414;2023-05-23T05:34:20;99180.31;;;16.84;100.00
41264;BME280;26998;48.714;9.414;2023-05-23T05:36:46;99208.41;;;16.95;100.00
41264;BME280;26998;48.714;9.414;2023-05-23T05:39:13;99234.84;;;17.05;100.00
41264;BME280;26998;48.714;9.414;2023-05-23T05:41:40;99256.19;;;17.06;100.00
41264;BME280;26998;48.714;9.414;2023-05-23T05:44:07;99252.56;;;17.13;100.00
41264;BME280;26998;48.714;9.414;2023-05-23T05:46:34;99264.69;;;17.22;100.00
41264;BME280;26998;48.714;9.414;2023-05-23T05:49:01;99275.28;;;17.35;100.00
41264;BME280;26998;48.714;9.414;2023-05-23T05:51:28;99277.88;;;17.30;100.00
41264;BME280;26998;48.714;9.414;2023-05-23T05:53:54;99291.72;;;17.22;100.00
41264;BME280;26998;48.714;9.414;2023-05-23T05:56:21;99284.22;;;17.24;100.00
41264;BME280;26998;48.714;9.414;2023-05-23T05:58:48;99285.28;;;17.35;100.00
41264;BME280;26998;48.714;9.414;2023-05-23T06:01:14;99285.44;;;17.51;100.00
41264;BME280;26998;48.714;9.414;2023-05-23T06:03:42;99286.75;;;17.72;100.00
41264;BME280;26998;48.714;9.414;2023-05-23T06:06:08;99290.19;;;18.15;100.00
41264;BME280;26998;48.714;9.414;2023-05-23T06:08:35;99264.56;;;18.69;100.00
41264;BME280;26998;48.714;9.414;2023-05-23T06:11:02;99241.22;;;19.43;100.00
41264;BME280;26998;48.714;9.414;2023-05-23T06:13:29;99189.28;;;19.84;100.00
41264;BME280;26998;48.714;9.414;2023-05-23T06:15:56;99206.63;;;19.50;100.00
41264;BME280;26998;48.714;9.414;2023-05-23T06:18:23;99242.38;;;19.13;100.00
41264;BME280;26998;48.714;9.414;2023-05-23T06:20:49;99310.59;;;19.27;100.00
41264;BME280;26998;48.714;9.414;2023-05-23T06:23:16;99296.56;;;19.13;100.00
41264;BME280;26998;48.714;9.414;2023-05-23T06:25:43;99336.56;;;18.94;100.00
41264;BME280;26998;48.714;9.414;2023-05-23T06:28:09;99379.69;;;18.60;100.00
41264;BME280;26998;48.714;9.414;2023-05-23T06:30:36;99406.50;;;18.50;100.00
41264;BME280;26998;48.714;9.414;2023-05-23T06:33:03;99423.69;;;18.44;100.00
41264;BME280;26998;48.714;9.414;2023-05-23T06:35:30;99437.13;;;18.51;100.00
41264;BME280;26998;48.714;9.414;2023-05-23T06:37:57;99446.41;;;18.43;100.00
41264;BME280;26998;48.714;9.414;2023-05-23T06:40:24;99475.06;;;18.09;100.00
41264;BME280;26998;48.714;9.414;2023-05-23T06:42:50;99497.97;;;18.06;100.00
41264;BME280;26998;48.714;9.414;2023-05-23T06:45:18;99495.03;;;17.96;100.00
41264;BME280;26998;48.714;9.414;2023-05-23T06:47:45;99529.72;;;17.99;100.00
41264;BME280;26998;48.714;9.414;2023-05-23T06:50:12;99543.94;;;17.94;100.00
41264;BME280;26998;48.714;9.414;2023-05-23T06:52:38;99544.06;;;17.99;100.00
41264;BME280;26998;48.714;9.414;2023-05-23T06:55:05;99571.38;;;18.10;100.00
41264;BME280;26998;48.714;9.414;2023-05-23T06:57:32;99554.22;;;18.16;100.00
41264;BME280;26998;48.714;9.414;2023-05-23T06:59:59;99523.25;;;18.00;100.00
41264;BME280;26998;48.714;9.414;2023-05-23T07:02:26;99537.13;;;17.92;100.00
41264;BME280;26998;48.714;9.414;2023-05-23T07:04:53;99561.63;;;18.09;100.00
41264;BME280;26998;48.714;9.414;2023-05-23T07:07:20;99551.34;;;17.99;100.00
41264;BME280;26998;48.714;9.414;2023-05-23T07:09:47;99577.69;;;17.92;100.00
41264;BME280;26998;48.714;9.414;2023-05-23T07:12:14;99562.13;;;17.87;100.00
41264;BME280;26998;48.714;9.414;2023-05-23T07:14:43;99578.06;;;17.77;100.00
41264;BME280;26998;48.714;9.414;2023-05-23T07:17:10;99575.38;;;17.77;100.00
41264;BME280;26998;48.714;9.414;2023-05-23T07:19:37;99573.38;;;17.84;100.00
41264;BME280;26998;48.714;9.414;2023-05-23T07:22:03;99589.75;;;17.71;100.00
41264;BME280;26998;48.714;9.414;2023-05-23T07:24:30;99604.81;;;17.85;100.00
41264;BME280;26998;48.714;9.414;2023-05-23T07:26:57;99579.56;;;17.73;100.00
41264;BME280;26998;48.714;9.414;2023-05-23T07:29:23;99590.53;;;17.78;100.00
41264;BME280;26998;48.714;9.414;2023-05-23T07:31:50;99564.91;;;17.81;100.00
41264;BME280;26998;48.714;9.414;2023-05-23T07:34:18;99567.00;;;17.78;100.00
41264;BME280;26998;48.714;9.414;2023-05-23T07:36:45;99567.25;;;17.77;100.00
41264;BME280;26998;48.714;9.414;2023-05-23T07:39:12;99572.94;;;17.69;100.00
41264;BME280;26998;48.714;9.414;2023-05-23T07:41:39;99618.28;;;17.48;100.00
41264;BME280;26998;48.714;9.414;2023-05-23T07:44:06;99648.47;;;17.45;100.00
41264;BME280;26998;48.714;9.414;2023-05-23T07:46:33;99677.66;;;17.37;100.00
41264;BME280;26998;48.714;9.414;2023-05-23T07:49:02;99676.22;;;17.34;100.00
41264;BME280;26998;48.714;9.414;2023-05-23T07:51:29;99680.97;;;17.14;100.00
41264;BME280;26998;48.714;9.414;2023-05-23T07:53:56;99695.94;;;17.09;100.00
41264;BME280;26998;48.714;9.414;2023-05-23T07:56:23;99692.03;;;17.05;100.00
41264;BME280;26998;48.714;9.414;2023-05-23T07:58:51;99700.25;;;16.92;100.00
41264;BME280;26998;48.714;9.414;2023-05-23T08:01:17;99705.91;;;16.84;100.00
41264;BME280;26998;48.714;9.414;2023-05-23T08:03:45;99699.00;;;16.88;100.00
41264;BME280;26998;48.714;9.414;2023-05-23T08:06:15;99671.63;;;16.84;100.00
41264;BME280;26998;48.714;9.414;2023-05-23T08:08:42;99665.97;;;16.93;100.00
41264;BME280;26998;48.714;9.414;2023-05-23T08:11:09;99635.53;;;17.04;100.00
41264;BME280;26998;48.714;9.414;2023-05-23T08:13:35;99601.66;;;17.08;100.00
41264;BME280;26998;48.714;9.414;2023-05-23T08:16:02;99612.22;;;17.09;100.00
41264;BME280;26998;48.714;9.414;2023-05-23T08:18:30;99584.22;;;17.29;100.00
41264;BME280;26998;48.714;9.414;2023-05-23T08:20:57;99539.59;;;17.38;100.00
41264;BME280;26998;48.714;9.414;2023-05-23T08:23:24;99517.41;;;17.36;100.00
41264;BME280;26998;48.714;9.414;2023-05-23T08:25:53;99492.38;;;17.59;100.00
41264;BME280;26998;48.714;9.414;2023-05-23T08:28:20;99429.28;;;17.65;100.00
41264;BME280;26998;48.714;9.414;2023-05-23T08:30:46;99401.69;;;17.75;100.00
41264;BME280;26998;48.714;9.414;2023-05-23T08:33:13;99371.22;;;17.98;100.00
41264;BME280;26998;48.714;9.414;2023-05-23T08:35:40;99352.19;;;18.05;100.00
41264;BME280;26998;48.714;9.414;2023-05-23T08:38:09;99336.63;;;18.00;100.00
41264;BME280;26998;48.714;9.414;2023-05-23T08:40:38;99336.75;;;17.93;100.00
41264;BME280;26998;48.714;9.414;2023-05-23T08:43:06;99362.22;;;17.74;100.00
41264;BME280;26998;48.714;9.414;2023-05-23T08:45:35;99369.25;;;17.75;100.00
41264;BME280;26998;48.714;9.414;2023-05-23T08:48:06;99354.03;;;17.81;100.00
41264;BME280;26998;48.714;9.414;2023-05-23T08:50:34;99363.78;;;17.82;100.00
41264;BME280;26998;48.714;9.414;2023-05-23T08:53:04;99344.53;;;18.02;100.00
41264;BME280;26998;48.714;9.414;2023-05-23T08:55:32;99340.16;;;17.77;100.00
41264;BME280;26998;48.714;9.414;2023-05-23T08:57:59;99342.06;;;17.88;100.00
41264;BME280;26998;48.714;9.414;2023-05-23T09:00:27;99334.13;;;17.75;100.00
41264;BME280;26998;48.714;9.414;2023-05-23T09:02:54;99361.31;;;17.50;100.00
41264;BME280;26998;48.714;9.414;2023-05-23T09:05:21;99384.56;;;17.39;100.00
41264;BME280;26998;48.714;9.414;2023-05-23T09:07:48;99387.94;;;17.65;100.00
41264;BME280;26998;48.714;9.414;2023-05-23T09:10:16;99380.66;;;17.65;100.00
41264;BME280;26998;48.714;9.414;2023-05-23T09:12:44;99335.16;;;17.62;100.00
41264;BME280;26998;48.714;9.414;2023-05-23T09:15:11;99352.78;;;17.65;100.00
41264;BME280;26998;48.714;9.414;2023-05-23T09:17:38;99322.41;;;17.81;100.00
41264;BME280;26998;48.714;9.414;2023-05-23T09:20:13;99319.97;;;17.91;100.00
41264;BME280;26998;48.714;9.414;2023-05-23T09:22:45;99281.16;;;17.86;100.00
41264;BME280;26998;48.714;9.414;2023-05-23T09:25:12;99298.81;;;17.88;100.00
41264;BME280;26998;48.714;9.414;2023-05-23T09:27:39;99268.22;;;18.11;100.00
41264;BME280;26998;48.714;9.414;2023-05-23T09:30:09;99268.00;;;18.01;100.00
41264;BME280;26998;48.714;9.414;2023-05-23T09:32:37;99250.06;;;18.23;100.00
41264;BME280;26998;48.714;9.414;2023-05-23T09:35:07;99224.16;;;18.39;100.00
41264;BME280;26998;48.714;9.414;2023-05-23T09:37:44;99156.47;;;18.97;100.00
41264;BME280;26998;48.714;9.414;2023-05-23T09:40:12;99095.66;;;19.43;100.00
41264;BME280;26998;48.714;9.414;2023-05-23T09:42:42;99078.31;;;19.22;100.00
41264;BME280;26998;48.714;9.414;2023-05-23T09:45:09;99082.09;;;19.21;100.00
41264;BME280;26998;48.714;9.414;2023-05-23T09:47:38;99090.16;;;19.16;100.00
41264;BME280;26998;48.714;9.414;2023-05-23T09:50:07;99121.88;;;18.70;100.00
41264;BME280;26998;48.714;9.414;2023-05-23T09:52:37;99170.22;;;18.50;100.00
41264;BME280;26998;48.714;9.414;2023-05-23T09:55:05;99148.81;;;18.77;100.00
41264;BME280;26998;48.714;9.414;2023-05-23T09:57:37;99124.63;;;18.87;100.00
41264;BME280;26998;48.714;9.414;2023-05-23T10:00:06;99102.97;;;19.04;100.00
41264;BME280;26998;48.714;9.414;2023-05-23T10:05:04;99127.41;;;18.92;100.00
41264;BME280;26998;48.714;9.414;2023-05-23T10:07:33;99074.03;;;19.26;100.00
41264;BME280;26998;48.714;9.414;2023-05-23T10:10:03;99097.19;;;18.66;100.00
41264;BME280;26998;48.714;9.414;2023-05-23T10:15:03;99135.47;;;18.58;100.00
41264;BME280;26998;48.714;9.414;2023-05-23T10:20:10;99102.22;;;19.25;100.00
41264;BME280;26998;48.714;9.414;2023-05-23T10:22:37;99093.91;;;19.32;100.00
41264;BME280;26998;48.714;9.414;2023-05-23T10:25:05;99082.59;;;19.01;100.00
41264;BME280;26998;48.714;9.414;2023-05-23T10:27:32;99081.13;;;18.77;100.00
41264;BME280;26998;48.714;9.414;2023-05-23T10:29:59;99080.53;;;19.08;100.00
41264;BME280;26998;48.714;9.414;2023-05-23T10:32:27;99102.00;;;18.64;100.00
41264;BME280;26998;48.714;9.414;2023-05-23T10:35:22;99086.88;;;18.80;100.00
41264;BME280;26998;48.714;9.414;2023-05-23T10:38:08;99067.41;;;19.17;100.00
41264;BME280;26998;48.714;9.414;2023-05-23T10:41:22;99058.56;;;18.88;100.00
41264;BME280;26998;48.714;9.414;2023-05-23T10:44:08;99019.81;;;19.65;100.00
41264;BME280;26998;48.714;9.414;2023-05-23T10:46:58;99011.41;;;19.45;100.00
41264;BME280;26998;48.714;9.414;2023-05-23T10:49:41;99011.72;;;19.48;100.00
41264;BME280;26998;48.714;9.414;2023-05-23T10:52:11;98971.47;;;20.11;100.00
41264;BME280;26998;48.714;9.414;2023-05-23T10:54:46;98974.53;;;19.88;100.00
41264;BME280;26998;48.714;9.414;2023-05-23T10:57:16;98974.84;;;19.47;100.00
41264;BME280;26998;48.714;9.414;2023-05-23T10:59:44;98958.78;;;19.90;100.00
41264;BME280;26998;48.714;9.414;2023-05-23T11:02:14;98959.16;;;19.27;100.00
41264;BME280;26998;48.714;9.414;2023-05-23T11:04:41;98973.88;;;19.80;100.00
41264;BME280;26998;48.714;9.414;2023-05-23T11:07:31;98958.25;;;19.66;100.00
41264;BME280;26998;48.714;9.414;2023-05-23T11:10:09;98937.16;;;19.46;100.00
41264;BME280;26998;48.714;9.414;2023-05-23T11:12:38;98950.72;;;19.24;100.00
41264;BME280;26998;48.714;9.414;2023-05-23T11:17:50;98913.50;;;20.22;100.00
41264;BME280;26998;48.714;9.414;2023-05-23T11:20:18;98906.56;;;19.72;100.00
41264;BME280;26998;48.714;9.414;2023-05-23T11:22:52;98922.97;;;19.38;100.00
41264;BME280;26998;48.714;9.414;2023-05-23T11:25:20;98942.56;;;19.68;100.00
41264;BME280;26998;48.714;9.414;2023-05-23T11:27:48;98921.53;;;19.80;100.00
41264;BME280;26998;48.714;9.414;2023-05-23T11:30:16;98933.13;;;19.26;100.00
41264;BME280;26998;48.714;9.414;2023-05-23T11:32:50;98933.75;;;19.33;100.00
41264;BME280;26998;48.714;9.414;2023-05-23T11:35:17;98945.56;;;19.22;100.00
41264;BME280;26998;48.714;9.414;2023-05-23T11:37:44;98939.28;;;19.00;100.00
41264;BME280;26998;48.714;9.414;2023-05-23T11:40:25;98946.09;;;19.24;100.00
41264;BME280;26998;48.714;9.414;2023-05-23T11:42:53;98915.44;;;19.68;100.00
41264;BME280;26998;48.714;9.414;2023-05-23T11:45:21;98897.50;;;19.89;100.00
41264;BME280;26998;48.714;9.414;2023-05-23T11:47:48;98895.97;;;20.03;100.00
41264;BME280;26998;48.714;9.414;2023-05-23T11:50:15;98893.38;;;20.13;100.00
41264;BME280;26998;48.714;9.414;2023-05-23T11:52:42;98898.16;;;20.01;100.00
41264;BME280;26998;48.714;9.414;2023-05-23T11:55:12;98921.53;;;19.80;100.00
41264;BME280;26998;48.714;9.414;2023-05-23T11:57:39;98918.28;;;19.56;100.00
41264;BME280;26998;48.714;9.414;2023-05-23T12:00:07;98894.28;;;19.97;100.00
41264;BME280;26998;48.714;9.414;2023-05-23T12:02:42;98884.69;;;20.16;100.00
41264;BME280;26998;48.714;9.414;2023-05-23T12:05:11;98873.53;;;19.75;100.00
41264;BME280;26998;48.714;9.414;2023-05-23T12:10:09;98846.84;;;20.37;100.00
41264;BME280;26998;48.714;9.414;2023-05-23T12:12:36;98844.72;;;20.49;100.00
41264;BME280;26998;48.714;9.414;2023-05-23T12:15:04;98841.34;;;20.26;100.00
41264;BME280;26998;48.714;9.414;2023-05-23T12:17:31;98833.78;;;20.28;100.00
41264;BME280;26998;48.714;9.414;2023-05-23T12:20:01;98835.69;;;19.64;100.00
41264;BME280;26998;48.714;9.414;2023-05-23T12:22:29;98817.88;;;20.05;100.00
41264;BME280;26998;48.714;9.414;2023-05-23T12:24:56;98826.44;;;19.59;100.00
41264;BME280;26998;48.714;9.414;2023-05-23T12:27:27;98818.91;;;19.99;100.00
41264;BME280;26998;48.714;9.414;2023-05-23T12:30:11;98822.72;;;19.98;100.00
41264;BME280;26998;48.714;9.414;2023-05-23T12:32:43;98824.75;;;20.65;100.00
41264;BME280;26998;48.714;9.414;2023-05-23T12:35:12;98816.09;;;20.73;100.00
41264;BME280;26998;48.714;9.414;2023-05-23T12:37:40;98817.34;;;20.50;100.00
41264;BME280;26998;48.714;9.414;2023-05-23T12:40:15;98817.72;;;20.22;100.00
41264;BME280;26998;48.714;9.414;2023-05-23T12:42:50;98822.06;;;20.23;100.00
41264;BME280;26998;48.714;9.414;2023-05-23T12:45:21;98819.13;;;20.29;100.00
41264;BME280;26998;48.714;9.414;2023-05-23T12:47:48;98815.00;;;20.69;100.00
41264;BME280;26998;48.714;9.414;2023-05-23T12:50:19;98806.88;;;20.69;100.00
41264;BME280;26998;48.714;9.414;2023-05-23T12:52:46;98804.56;;;20.51;100.00
41264;BME280;26998;48.714;9.414;2023-05-23T12:55:13;98810.19;;;19.97;100.00
41264;BME280;26998;48.714;9.414;2023-05-23T12:57:40;98806.84;;;19.79;100.00
41264;BME280;26998;48.714;9.414;2023-05-23T13:00:07;98802.22;;;20.17;100.00
41264;BME280;26998;48.714;9.414;2023-05-23T13:02:34;98801.06;;;20.50;100.00
41264;BME280;26998;48.714;9.414;2023-05-23T13:05:01;98791.41;;;20.75;96.31
41264;BME280;26998;48.714;9.414;2023-05-23T13:07:28;98790.25;;;20.61;99.08
41264;BME280;26998;48.714;9.414;2023-05-23T13:09:55;98786.88;;;21.06;97.04
41264;BME280;26998;48.714;9.414;2023-05-23T13:12:25;98784.16;;;21.01;96.10
41264;BME280;26998;48.714;9.414;2023-05-23T13:15:03;98778.16;;;20.94;96.25